sensor_id;sensor_type;location;lat;lon;timestamp;P1;durP1;ratioP1;P2;durP2;ratioP2
25191;SDS011;13143;50.924;5.320;2023-05-15T00:02:44;38.00;;;22.67;;
25191;SDS011;13143;50.924;5.320;2023-05-15T00:05:20;30.52;;;21.88;;
25191;SDS011;13143;50.924;5.320;2023-05-15T00:07:55;36.92;;;22.85;;
25191;SDS011;13143;50.924;5.320;2023-05-15T00:10:24;28.90;;;22.40;;
25191;SDS011;13143;50.924;5.320;2023-05-15T00:12:54;33.38;;;22.20;;
25191;SDS011;13143;50.924;5.320;2023-05-15T00:15:20;39.70;;;24.88;;
25191;SDS011;13143;50.924;5.320;2023-05-15T00:18:03;35.28;;;23.35;;
25191;SDS011;13143;50.924;5.320;2023-05-15T00:20:58;34.97;;;24.58;;
25191;SDS011;13143;50.924;5.320;2023-05-15T00:23:36;38.25;;;23.77;;
25191;SDS011;13143;50.924;5.320;2023-05-15T00:26:05;37.10;;;25.08;;
25191;SDS011;13143;50.924;5.320;2023-05-15T00:28:40;29.48;;;23.70;;
25191;SDS011;13143;50.924;5.320;2023-05-15T00:31:07;33.78;;;23.83;;
25191;SDS011;13143;50.924;5.320;2023-05-15T00:33:33;33.13;;;24.88;;
25191;SDS011;13143;50.924;5.320;2023-05-15T00:36:05;33.90;;;24.38;;
25191;SDS011;13143;50.924;5.320;2023-05-15T00:38:39;37.55;;;24.90;;
25191;SDS011;13143;50.924;5.320;2023-05-15T00:41:18;40.42;;;26.65;;
25191;SDS011;13143;50.924;5.320;2023-05-15T00:43:57;38.42;;;28.10;;
25191;SDS011;13143;50.924;5.320;2023-05-15T00:46:26;36.65;;;27.75;;
25191;SDS011;13143;50.924;5.320;2023-05-15T00:48:55;40.03;;;29.05;;
25191;SDS011;13143;50.924;5.320;2023-05-15T00:51:22;39.22;;;29.45;;
25191;SDS011;13143;50.924;5.320;2023-05-15T00:53:49;40.47;;;30.38;;
25191;SDS011;13143;50.924;5.320;2023-05-15T00:56:19;49.40;;;32.58;;
25191;SDS011;13143;50.924;5.320;2023-05-15T00:58:52;44.10;;;31.42;;
25191;SDS011;13143;50.924;5.320;2023-05-15T01:01:26;43.97;;;30.98;;
25191;SDS011;13143;50.924;5.320;2023-05-15T01:03:56;45.95;;;32.28;;
25191;SDS011;13143;50.924;5.320;2023-05-15T01:06:38;44.75;;;33.15;;
25191;SDS011;13143;50.924;5.320;2023-05-15T01:09:16;50.55;;;34.38;;
25191;SDS011;13143;50.924;5.320;2023-05-15T01:11:53;54.10;;;35.25;;
25191;SDS011;13143;50.924;5.320;2023-05-15T01:14:25;55.40;;;34.85;;
25191;SDS011;13143;50.924;5.320;2023-05-15T01:16:57;51.28;;;34.72;;
25191;SDS011;13143;50.924;5.320;2023-05-15T01:19:41;51.30;;;36.20;;
25191;SDS011;13143;50.924;5.320;2023-05-15T01:22:30;58.40;;;36.58;;
25191;SDS011;13143;50.924;5.320;2023-05-15T01:25:36;51.78;;;36.47;;
25191;SDS011;13143;50.924;5.320;2023-05-15T01:28:21;53.40;;;36.25;;
25191;SDS011;13143;50.924;5.320;2023-05-15T01:31:07;52.08;;;37.97;;
25191;SDS011;13143;50.924;5.320;2023-05-15T01:34:07;50.60;;;36.88;;
25191;SDS011;13143;50.924;5.320;2023-05-15T01:36:36;58.30;;;38.53;;
25191;SDS011;13143;50.924;5.320;2023-05-15T01:39:11;55.33;;;37.97;;
25191;SDS011;13143;50.924;5.320;2023-05-15T01:41:45;53.30;;;38.35;;
25191;SDS011;13143;50.924;5.320;2023-05-15T01:44:37;51.88;;;37.55;;
25191;SDS011;13143;50.924;5.320;2023-05-15T01:47:11;52.10;;;37.28;;
25191;SDS011;13143;50.924;5.320;2023-05-15T01:49:39;51.63;;;38.30;;
25191;SDS011;13143;50.924;5.320;2023-05-15T01:52:21;53.15;;;38.40;;
25191;SDS011;13143;50.924;5.320;2023-05-15T01:54:56;55.40;;;38.43;;
25191;SDS011;13143;50.924;5.320;2023-05-15T01:57:34;54.78;;;39.97;;
25191;SDS011;13143;50.924;5.320;2023-05-15T02:00:02;60.45;;;42.40;;
25191;SDS011;13143;50.924;5.320;2023-05-15T02:02:34;64.47;;;43.53;;
25191;SDS011;13143;50.924;5.320;2023-05-15T02:05:02;64.72;;;45.03;;
25191;SDS011;13143;50.924;5.320;2023-05-15T02:07:42;78.82;;;51.60;;
25191;SDS011;13143;50.924;5.320;2023-05-15T02:10:10;76.22;;;52.65;;
25191;SDS011;13143;50.924;5.320;2023-05-15T02:12:40;86.70;;;55.58;;
25191;SDS011;13143;50.924;5.320;2023-05-15T02:15:19;78.60;;;55.60;;
25191;SDS011;13143;50.924;5.320;2023-05-15T02:17:55;85.28;;;56.60;;
25191;SDS011;13143;50.924;5.320;2023-05-15T02:21:10;80.28;;;53.63;;
25191;SDS011;13143;50.924;5.320;2023-05-15T02:23:41;82.32;;;55.88;;
25191;SDS011;13143;50.924;5.320;2023-05-15T02:37:27;79.60;;;55.03;;
25191;SDS011;13143;50.924;5.320;2023-05-15T02:40:01;89.00;;;55.90;;
25191;SDS011;13143;50.924;5.320;2023-05-15T02:42:54;84.60;;;55.63;;
25191;SDS011;13143;50.924;5.320;2023-05-15T02:45:34;85.75;;;57.47;;
25191;SDS011;13143;50.924;5.320;2023-05-15T02:48:10;84.78;;;54.22;;
25191;SDS011;13143;50.924;5.320;2023-05-15T02:50:52;77.07;;;53.75;;
25191;SDS011;13143;50.924;5.320;2023-05-15T02:56:26;86.03;;;55.85;;
25191;SDS011;13143;50.924;5.320;2023-05-15T02:58:53;79.55;;;52.63;;
25191;SDS011;13143;50.924;5.320;2023-05-15T03:01:37;80.47;;;53.72;;
25191;SDS011;13143;50.924;5.320;2023-05-15T03:04:06;77.38;;;52.17;;
25191;SDS011;13143;50.924;5.320;2023-05-15T03:06:49;79.75;;;52.45;;
25191;SDS011;13143;50.924;5.320;2023-05-15T03:09:19;80.40;;;53.55;;
25191;SDS011;13143;50.924;5.320;2023-05-15T03:11:50;74.38;;;52.05;;
25191;SDS011;13143;50.924;5.320;2023-05-15T03:14:34;82.45;;;52.75;;
25191;SDS011;13143;50.924;5.320;2023-05-15T03:17:04;81.18;;;52.83;;
25191;SDS011;13143;50.924;5.320;2023-05-15T03:19:36;78.32;;;52.38;;
25191;SDS011;13143;50.924;5.320;2023-05-15T03:22:03;77.85;;;51.65;;
25191;SDS011;13143;50.924;5.320;2023-05-15T03:24:53;80.25;;;50.75;;
25191;SDS011;13143;50.924;5.320;2023-05-15T03:30:10;74.55;;;51.13;;
25191;SDS011;13143;50.924;5.320;2023-05-15T03:32:39;82.65;;;53.63;;
25191;SDS011;13143;50.924;5.320;2023-05-15T03:35:48;77.50;;;52.15;;
25191;SDS011;13143;50.924;5.320;2023-05-15T03:38:07;78.38;;;51.25;;
25191;SDS011;13143;50.924;5.320;2023-05-15T03:40:37;82.13;;;53.67;;
25191;SDS011;13143;50.924;5.320;2023-05-15T03:43:07;86.15;;;55.25;;
25191;SDS011;13143;50.924;5.320;2023-05-15T03:45:39;88.22;;;54.63;;
25191;SDS011;13143;50.924;5.320;2023-05-15T03:48:26;93.10;;;56.40;;
25191;SDS011;13143;50.924;5.320;2023-05-15T03:50:58;87.20;;;55.00;;
25191;SDS011;13143;50.924;5.320;2023-05-15T03:53:25;93.80;;;57.83;;
25191;SDS011;13143;50.924;5.320;2023-05-15T03:58:47;89.18;;;57.92;;
25191;SDS011;13143;50.924;5.320;2023-05-15T04:01:19;89.22;;;58.20;;
25191;SDS011;13143;50.924;5.320;2023-05-15T04:03:59;93.20;;;58.40;;
25191;SDS011;13143;50.924;5.320;2023-05-15T04:06:28;94.97;;;57.13;;
25191;SDS011;13143;50.924;5.320;2023-05-15T04:09:06;96.38;;;59.00;;
25191;SDS011;13143;50.924;5.320;2023-05-15T04:11:33;92.65;;;56.33;;
25191;SDS011;13143;50.924;5.320;2023-05-15T04:13:59;88.50;;;54.67;;
25191;SDS011;13143;50.924;5.320;2023-05-15T04:16:25;88.07;;;56.13;;
25191;SDS011;13143;50.924;5.320;2023-05-15T04:18:52;87.18;;;56.67;;
25191;SDS011;13143;50.924;5.320;2023-05-15T04:21:18;89.95;;;57.35;;
25191;SDS011;13143;50.924;5.320;2023-05-15T04:23:50;86.30;;;54.80;;
25191;SDS011;13143;50.924;5.320;2023-05-15T04:26:19;94.85;;;56.67;;
25191;SDS011;13143;50.924;5.320;2023-05-15T04:28:45;90.10;;;57.50;;
25191;SDS011;13143;50.924;5.320;2023-05-15T04:31:22;87.25;;;57.20;;
25191;SDS011;13143;50.924;5.320;2023-05-15T04:33:49;85.53;;;55.10;;
25191;SDS011;13143;50.924;5.320;2023-05-15T04:36:29;87.13;;;55.15;;
25191;SDS011;13143;50.924;5.320;2023-05-15T04:39:02;95.18;;;57.88;;
25191;SDS011;13143;50.924;5.320;2023-05-15T04:41:57;85.07;;;55.47;;
25191;SDS011;13143;50.924;5.320;2023-05-15T04:44:39;84.57;;;56.28;;
25191;SDS011;13143;50.924;5.320;2023-05-15T04:47:08;85.05;;;54.15;;
25191;SDS011;13143;50.924;5.320;2023-05-15T04:49:53;85.30;;;53.53;;
25191;SDS011;13143;50.924;5.320;2023-05-15T04:52:25;87.50;;;54.50;;
25191;SDS011;13143;50.924;5.320;2023-05-15T04:54:52;86.50;;;54.42;;
25191;SDS011;13143;50.924;5.320;2023-05-15T04:57:27;84.30;;;54.28;;
25191;SDS011;13143;50.924;5.320;2023-05-15T05:00:03;97.63;;;57.65;;
25191;SDS011;13143;50.924;5.320;2023-05-15T05:02:42;88.85;;;56.03;;
25191;SDS011;13143;50.924;5.320;2023-05-15T05:05:20;92.30;;;56.43;;
25191;SDS011;13143;50.924;5.320;2023-05-15T05:08:05;93.80;;;55.42;;
25191;SDS011;13143;50.924;5.320;2023-05-15T05:10:34;89.82;;;54.53;;
25191;SDS011;13143;50.924;5.320;2023-05-15T05:13:12;85.93;;;54.15;;
25191;SDS011;13143;50.924;5.320;2023-05-15T05:15:59;87.00;;;54.17;;
25191;SDS011;13143;50.924;5.320;2023-05-15T05:18:31;86.57;;;54.55;;
25191;SDS011;13143;50.924;5.320;2023-05-15T05:20:58;92.30;;;56.78;;
25191;SDS011;13143;50.924;5.320;2023-05-15T05:23:40;92.78;;;56.45;;
25191;SDS011;13143;50.924;5.320;2023-05-15T05:26:24;88.88;;;56.38;;
25191;SDS011;13143;50.924;5.320;2023-05-15T05:28:51;81.68;;;52.83;;
25191;SDS011;13143;50.924;5.320;2023-05-15T05:31:36;84.55;;;54.20;;
25191;SDS011;13143;50.924;5.320;2023-05-15T05:34:03;84.88;;;52.55;;
25191;SDS011;13143;50.924;5.320;2023-05-15T05:36:49;85.03;;;52.22;;
25191;SDS011;13143;50.924;5.320;2023-05-15T05:39:27;83.00;;;51.13;;
25191;SDS011;13143;50.924;5.320;2023-05-15T05:42:03;78.32;;;52.05;;
25191;SDS011;13143;50.924;5.320;2023-05-15T05:44:30;84.78;;;54.08;;
25191;SDS011;13143;50.924;5.320;2023-05-15T05:47:07;88.57;;;53.30;;
25191;SDS011;13143;50.924;5.320;2023-05-15T05:49:40;88.35;;;55.53;;
25191;SDS011;13143;50.924;5.320;2023-05-15T05:52:30;91.53;;;54.67;;
25191;SDS011;13143;50.924;5.320;2023-05-15T05:54:56;93.28;;;54.50;;
25191;SDS011;13143;50.924;5.320;2023-05-15T05:57:34;85.43;;;54.20;;
25191;SDS011;13143;50.924;5.320;2023-05-15T06:00:10;89.85;;;54.90;;
25191;SDS011;13143;50.924;5.320;2023-05-15T06:02:37;92.03;;;55.55;;
25191;SDS011;13143;50.924;5.320;2023-05-15T06:05:12;84.82;;;53.78;;
25191;SDS011;13143;50.924;5.320;2023-05-15T06:08:02;85.25;;;52.78;;
25191;SDS011;13143;50.924;5.320;2023-05-15T06:10:45;92.40;;;57.60;;
25191;SDS011;13143;50.924;5.320;2023-05-15T06:13:23;90.07;;;55.65;;
25191;SDS011;13143;50.924;5.320;2023-05-15T06:15:58;87.40;;;54.60;;
25191;SDS011;13143;50.924;5.320;2023-05-15T06:18:37;87.78;;;54.88;;
25191;SDS011;13143;50.924;5.320;2023-05-15T06:21:06;90.80;;;55.63;;
25191;SDS011;13143;50.924;5.320;2023-05-15T06:23:39;92.90;;;55.35;;
25191;SDS011;13143;50.924;5.320;2023-05-15T06:26:18;94.95;;;57.70;;
25191;SDS011;13143;50.924;5.320;2023-05-15T06:28:56;97.18;;;58.08;;
25191;SDS011;13143;50.924;5.320;2023-05-15T06:31:28;100.93;;;57.45;;
25191;SDS011;13143;50.924;5.320;2023-05-15T06:33:54;98.88;;;58.85;;
25191;SDS011;13143;50.924;5.320;2023-05-15T06:36:24;93.68;;;57.53;;
25191;SDS011;13143;50.924;5.320;2023-05-15T06:38:53;94.30;;;56.63;;
25191;SDS011;13143;50.924;5.320;2023-05-15T06:41:20;92.82;;;58.42;;
25191;SDS011;13143;50.924;5.320;2023-05-15T06:43:49;90.85;;;54.95;;
25191;SDS011;13143;50.924;5.320;2023-05-15T06:46:15;91.25;;;55.28;;
25191;SDS011;13143;50.924;5.320;2023-05-15T06:48:43;87.90;;;55.28;;
25191;SDS011;13143;50.924;5.320;2023-05-15T06:51:13;89.97;;;55.88;;
25191;SDS011;13143;50.924;5.320;2023-05-15T06:53:42;93.32;;;57.60;;
25191;SDS011;13143;50.924;5.320;2023-05-15T06:56:17;88.47;;;56.95;;
25191;SDS011;13143;50.924;5.320;2023-05-15T06:58:44;93.10;;;55.63;;
25191;SDS011;13143;50.924;5.320;2023-05-15T07:01:10;88.80;;;55.30;;
25191;SDS011;13143;50.924;5.320;2023-05-15T07:03:54;87.60;;;55.17;;
25191;SDS011;13143;50.924;5.320;2023-05-15T07:06:21;90.10;;;54.40;;
25191;SDS011;13143;50.924;5.320;2023-05-15T07:08:47;85.82;;;53.53;;
25191;SDS011;13143;50.924;5.320;2023-05-15T07:11:14;87.82;;;55.10;;
25191;SDS011;13143;50.924;5.320;2023-05-15T07:13:40;90.22;;;54.15;;
25191;SDS011;13143;50.924;5.320;2023-05-15T07:16:06;88.75;;;53.63;;
25191;SDS011;13143;50.924;5.320;2023-05-15T07:18:33;90.13;;;53.45;;
25191;SDS011;13143;50.924;5.320;2023-05-15T07:20:59;94.88;;;54.13;;
25191;SDS011;13143;50.924;5.320;2023-05-15T07:23:31;100.95;;;55.47;;
25191;SDS011;13143;50.924;5.320;2023-05-15T07:26:00;88.33;;;52.43;;
25191;SDS011;13143;50.924;5.320;2023-05-15T07:28:27;79.93;;;49.63;;
25191;SDS011;13143;50.924;5.320;2023-05-15T07:31:06;90.00;;;52.40;;
25191;SDS011;13143;50.924;5.320;2023-05-15T07:33:33;82.70;;;51.03;;
25191;SDS011;13143;50.924;5.320;2023-05-15T07:36:00;87.63;;;51.70;;
25191;SDS011;13143;50.924;5.320;2023-05-15T07:38:26;84.00;;;51.45;;
25191;SDS011;13143;50.924;5.320;2023-05-15T07:40:52;92.18;;;54.60;;
25191;SDS011;13143;50.924;5.320;2023-05-15T07:43:22;93.75;;;54.05;;
25191;SDS011;13143;50.924;5.320;2023-05-15T07:45:50;95.20;;;53.83;;
25191;SDS011;13143;50.924;5.320;2023-05-15T07:48:28;96.43;;;57.10;;
25191;SDS011;13143;50.924;5.320;2023-05-15T07:51:03;99.30;;;56.83;;
25191;SDS011;13143;50.924;5.320;2023-05-15T07:53:45;87.47;;;52.45;;
25191;SDS011;13143;50.924;5.320;2023-05-15T07:56:22;89.85;;;51.17;;
25191;SDS011;13143;50.924;5.320;2023-05-15T07:58:51;89.80;;;53.92;;
25191;SDS011;13143;50.924;5.320;2023-05-15T08:01:27;91.65;;;54.92;;
25191;SDS011;13143;50.924;5.320;2023-05-15T08:04:17;95.15;;;54.60;;
25191;SDS011;13143;50.924;5.320;2023-05-15T08:06:44;95.50;;;54.53;;
25191;SDS011;13143;50.924;5.320;2023-05-15T08:09:13;95.40;;;55.58;;
25191;SDS011;13143;50.924;5.320;2023-05-15T08:11:40;95.43;;;54.05;;
25191;SDS011;13143;50.924;5.320;2023-05-15T08:14:23;98.35;;;54.40;;
25191;SDS011;13143;50.924;5.320;2023-05-15T08:16:59;96.45;;;55.47;;
25191;SDS011;13143;50.924;5.320;2023-05-15T08:19:40;90.28;;;54.15;;
25191;SDS011;13143;50.924;5.320;2023-05-15T08:22:38;91.88;;;52.30;;
25191;SDS011;13143;50.924;5.320;2023-05-15T08:25:07;84.47;;;51.30;;
25191;SDS011;13143;50.924;5.320;2023-05-15T08:27:42;89.05;;;51.60;;
25191;SDS011;13143;50.924;5.320;2023-05-15T08:30:12;89.78;;;51.13;;
25191;SDS011;13143;50.924;5.320;2023-05-15T08:32:38;88.65;;;50.95;;
25191;SDS011;13143;50.924;5.320;2023-05-15T08:35:14;89.47;;;52.20;;
25191;SDS011;13143;50.924;5.320;2023-05-15T08:37:43;83.50;;;49.58;;
25191;SDS011;13143;50.924;5.320;2023-05-15T08:40:19;77.88;;;47.47;;
25191;SDS011;13143;50.924;5.320;2023-05-15T08:42:51;87.13;;;48.80;;
25191;SDS011;13143;50.924;5.320;2023-05-15T08:45:31;84.55;;;50.83;;
25191;SDS011;13143;50.924;5.320;2023-05-15T08:48:02;82.43;;;49.78;;
25191;SDS011;13143;50.924;5.320;2023-05-15T08:50:37;85.25;;;51.83;;
25191;SDS011;13143;50.924;5.320;2023-05-15T08:53:04;90.03;;;54.45;;
25191;SDS011;13143;50.924;5.320;2023-05-15T08:55:34;85.90;;;52.22;;
25191;SDS011;13143;50.924;5.320;2023-05-15T08:58:00;81.80;;;49.83;;
25191;SDS011;13143;50.924;5.320;2023-05-15T09:00:27;80.57;;;50.25;;
25191;SDS011;13143;50.924;5.320;2023-05-15T09:02:58;79.75;;;50.53;;
25191;SDS011;13143;50.924;5.320;2023-05-15T09:05:28;78.55;;;49.17;;
25191;SDS011;13143;50.924;5.320;2023-05-15T09:08:07;77.88;;;47.25;;
25191;SDS011;13143;50.924;5.320;2023-05-15T09:10:40;80.00;;;49.05;;
25191;SDS011;13143;50.924;5.320;2023-05-15T09:13:12;80.47;;;51.17;;
25191;SDS011;13143;50.924;5.320;2023-05-15T09:15:48;79.60;;;49.78;;
25191;SDS011;13143;50.924;5.320;2023-05-15T09:18:18;78.95;;;50.03;;
25191;SDS011;13143;50.924;5.320;2023-05-15T09:20:54;90.72;;;53.83;;
25191;SDS011;13143;50.924;5.320;2023-05-15T09:23:49;85.90;;;53.42;;
25191;SDS011;13143;50.924;5.320;2023-05-15T09:26:35;85.05;;;54.05;;
25191;SDS011;13143;50.924;5.320;2023-05-15T09:29:02;90.57;;;56.92;;
25191;SDS011;13143;50.924;5.320;2023-05-15T09:31:34;81.68;;;53.10;;
25191;SDS011;13143;50.924;5.320;2023-05-15T09:34:13;86.97;;;53.60;;
25191;SDS011;13143;50.924;5.320;2023-05-15T09:37:00;82.18;;;51.17;;
25191;SDS011;13143;50.924;5.320;2023-05-15T09:39:29;77.70;;;50.08;;
25191;SDS011;13143;50.924;5.320;2023-05-15T09:44:51;85.13;;;53.38;;
25191;SDS011;13143;50.924;5.320;2023-05-15T09:47:26;82.78;;;52.50;;
25191;SDS011;13143;50.924;5.320;2023-05-15T09:50:02;81.10;;;52.92;;
25191;SDS011;13143;50.924;5.320;2023-05-15T09:52:28;80.68;;;49.72;;
25191;SDS011;13143;50.924;5.320;2023-05-15T09:54:55;74.63;;;50.17;;
25191;SDS011;13143;50.924;5.320;2023-05-15T09:58:03;79.03;;;50.80;;
25191;SDS011;13143;50.924;5.320;2023-05-15T10:00:31;76.70;;;50.15;;
25191;SDS011;13143;50.924;5.320;2023-05-15T10:03:08;74.75;;;47.22;;
25191;SDS011;13143;50.924;5.320;2023-05-15T10:05:38;66.05;;;44.65;;
25191;SDS011;13143;50.924;5.320;2023-05-15T10:08:14;70.97;;;47.33;;
25191;SDS011;13143;50.924;5.320;2023-05-15T10:10:50;71.35;;;47.80;;
25191;SDS011;13143;50.924;5.320;2023-05-15T10:13:43;71.80;;;48.30;;
25191;SDS011;13143;50.924;5.320;2023-05-15T10:16:09;66.32;;;46.88;;
25191;SDS011;13143;50.924;5.320;2023-05-15T10:18:38;69.22;;;46.05;;
25191;SDS011;13143;50.924;5.320;2023-05-15T10:21:08;67.45;;;45.72;;
25191;SDS011;13143;50.924;5.320;2023-05-15T10:23:43;73.25;;;46.28;;
25191;SDS011;13143;50.924;5.320;2023-05-15T10:26:28;69.75;;;46.58;;
25191;SDS011;13143;50.924;5.320;2023-05-15T10:29:10;69.05;;;45.88;;
25191;SDS011;13143;50.924;5.320;2023-05-15T10:31:38;73.03;;;47.78;;
25191;SDS011;13143;50.924;5.320;2023-05-15T10:34:05;72.70;;;48.00;;
25191;SDS011;13143;50.924;5.320;2023-05-15T10:36:36;73.53;;;50.60;;
25191;SDS011;13143;50.924;5.320;2023-05-15T10:39:09;69.20;;;48.05;;
25191;SDS011;13143;50.924;5.320;2023-05-15T10:41:57;71.85;;;47.45;;
25191;SDS011;13143;50.924;5.320;2023-05-15T10:44:25;76.18;;;49.40;;
25191;SDS011;13143;50.924;5.320;2023-05-15T10:46:51;67.85;;;46.92;;
25191;SDS011;13143;50.924;5.320;2023-05-15T10:49:32;72.30;;;47.13;;
25191;SDS011;13143;50.924;5.320;2023-05-15T10:52:02;81.23;;;52.10;;
25191;SDS011;13143;50.924;5.320;2023-05-15T10:54:29;75.90;;;50.88;;
25191;SDS011;13143;50.924;5.320;2023-05-15T10:56:55;76.35;;;51.03;;
25191;SDS011;13143;50.924;5.320;2023-05-15T10:59:29;80.18;;;52.53;;
25191;SDS011;13143;50.924;5.320;2023-05-15T11:01:56;73.22;;;49.33;;
25191;SDS011;13143;50.924;5.320;2023-05-15T11:04:44;71.55;;;46.60;;
25191;SDS011;13143;50.924;5.320;2023-05-15T11:07:11;66.18;;;45.65;;
25191;SDS011;13143;50.924;5.320;2023-05-15T11:09:41;70.20;;;46.88;;
25191;SDS011;13143;50.924;5.320;2023-05-15T11:12:10;68.53;;;45.67;;
25191;SDS011;13143;50.924;5.320;2023-05-15T11:15:16;67.82;;;44.75;;
25191;SDS011;13143;50.924;5.320;2023-05-15T11:17:36;69.80;;;44.50;;
25191;SDS011;13143;50.924;5.320;2023-05-15T11:20:03;65.75;;;43.90;;
25191;SDS011;13143;50.924;5.320;2023-05-15T11:22:35;65.40;;;44.15;;
25191;SDS011;13143;50.924;5.320;2023-05-15T11:25:21;66.50;;;44.72;;
25191;SDS011;13143;50.924;5.320;2023-05-15T11:33:05;66.57;;;43.17;;
25191;SDS011;13143;50.924;5.320;2023-05-15T11:38:23;64.60;;;41.55;;
25191;SDS011;13143;50.924;5.320;2023-05-15T11:40:59;66.93;;;44.28;;
25191;SDS011;13143;50.924;5.320;2023-05-15T11:48:36;66.03;;;43.92;;
25191;SDS011;13143;50.924;5.320;2023-05-15T11:51:23;64.37;;;41.50;;
25191;SDS011;13143;50.924;5.320;2023-05-15T11:53:54;60.47;;;40.50;;
25191;SDS011;13143;50.924;5.320;2023-05-15T11:56:22;66.95;;;43.47;;
25191;SDS011;13143;50.924;5.320;2023-05-15T11:59:01;71.18;;;45.17;;
25191;SDS011;13143;50.924;5.320;2023-05-15T12:01:46;67.90;;;46.00;;
25191;SDS011;13143;50.924;5.320;2023-05-15T12:04:13;69.65;;;45.78;;
25191;SDS011;13143;50.924;5.320;2023-05-15T12:06:40;71.47;;;46.40;;
25191;SDS011;13143;50.924;5.320;2023-05-15T12:09:18;61.47;;;43.17;;
25191;SDS011;13143;50.924;5.320;2023-05-15T12:11:54;64.70;;;44.67;;
25191;SDS011;13143;50.924;5.320;2023-05-15T12:14:29;62.90;;;41.15;;
25191;SDS011;13143;50.924;5.320;2023-05-15T12:17:07;67.10;;;43.28;;
25191;SDS011;13143;50.924;5.320;2023-05-15T12:19:34;61.20;;;42.65;;
25191;SDS011;13143;50.924;5.320;2023-05-15T12:22:10;67.35;;;45.08;;
25191;SDS011;13143;50.924;5.320;2023-05-15T12:24:46;67.10;;;44.93;;
25191;SDS011;13143;50.924;5.320;2023-05-15T12:27:18;69.93;;;46.63;;
25191;SDS011;13143;50.924;5.320;2023-05-15T12:29:45;68.53;;;45.88;;
25191;SDS011;13143;50.924;5.320;2023-05-15T12:32:11;70.88;;;46.20;;
25191;SDS011;13143;50.924;5.320;2023-05-15T12:34:38;65.30;;;43.13;;
25191;SDS011;13143;50.924;5.320;2023-05-15T12:37:05;69.10;;;46.53;;
25191;SDS011;13143;50.924;5.320;2023-05-15T12:39:47;84.10;;;52.10;;
25191;SDS011;13143;50.924;5.320;2023-05-15T12:42:15;88.40;;;50.50;;
25191;SDS011;13143;50.924;5.320;2023-05-15T12:44:41;91.80;;;53.97;;
25191;SDS011;13143;50.924;5.320;2023-05-15T12:47:29;101.57;;;56.67;;
25191;SDS011;13143;50.924;5.320;2023-05-15T12:49:56;98.32;;;57.17;;
25191;SDS011;13143;50.924;5.320;2023-05-15T12:52:22;108.68;;;59.10;;
25191;SDS011;13143;50.924;5.320;2023-05-15T12:55:23;105.22;;;56.55;;
25191;SDS011;13143;50.924;5.320;2023-05-15T12:58:06;102.15;;;57.63;;
25191;SDS011;13143;50.924;5.320;2023-05-15T13:00:37;108.60;;;60.35;;
25191;SDS011;13143;50.924;5.320;2023-05-15T13:03:14;116.72;;;62.05;;
25191;SDS011;13143;50.924;5.320;2023-05-15T13:05:46;112.85;;;63.03;;
25191;SDS011;13143;50.924;5.320;2023-05-15T13:08:14;117.93;;;63.85;;
25191;SDS011;13143;50.924;5.320;2023-05-15T13:10:41;108.97;;;59.15;;
25191;SDS011;13143;50.924;5.320;2023-05-15T13:13:12;104.82;;;59.92;;
25191;SDS011;13143;50.924;5.320;2023-05-15T13:15:42;102.27;;;56.27;;
25191;SDS011;13143;50.924;5.320;2023-05-15T13:18:15;100.20;;;57.40;;
25191;SDS011;13143;50.924;5.320;2023-05-15T13:20:46;99.35;;;57.20;;
25191;SDS011;13143;50.924;5.320;2023-05-15T13:23:14;99.45;;;55.63;;
25191;SDS011;13143;50.924;5.320;2023-05-15T13:25:46;99.13;;;56.00;;
25191;SDS011;13143;50.924;5.320;2023-05-15T13:28:12;97.95;;;54.88;;
25191;SDS011;13143;50.924;5.320;2023-05-15T13:30:39;102.53;;;55.90;;
25191;SDS011;13143;50.924;5.320;2023-05-15T13:33:09;96.95;;;56.38;;
25191;SDS011;13143;50.924;5.320;2023-05-15T13:35:45;99.45;;;58.35;;
25191;SDS011;13143;50.924;5.320;2023-05-15T13:38:21;110.78;;;57.35;;
25191;SDS011;13143;50.924;5.320;2023-05-15T13:40:54;97.72;;;55.47;;
25191;SDS011;13143;50.924;5.320;2023-05-15T13:43:24;95.63;;;53.15;;
25191;SDS011;13143;50.924;5.320;2023-05-15T13:46:08;89.60;;;47.78;;
25191;SDS011;13143;50.924;5.320;2023-05-15T13:48:53;81.63;;;44.42;;
25191;SDS011;13143;50.924;5.320;2023-05-15T13:51:28;83.75;;;45.83;;
25191;SDS011;13143;50.924;5.320;2023-05-15T13:54:04;96.97;;;54.05;;
25191;SDS011;13143;50.924;5.320;2023-05-15T13:56:33;112.10;;;57.97;;
25191;SDS011;13143;50.924;5.320;2023-05-15T13:59:08;127.55;;;64.72;;
25191;SDS011;13143;50.924;5.320;2023-05-15T14:01:47;141.60;;;67.82;;
25191;SDS011;13143;50.924;5.320;2023-05-15T14:04:16;145.88;;;72.15;;
25191;SDS011;13143;50.924;5.320;2023-05-15T14:06:55;154.33;;;72.50;;
25191;SDS011;13143;50.924;5.320;2023-05-15T14:09:43;157.75;;;72.25;;
25191;SDS011;13143;50.924;5.320;2023-05-15T14:12:08;113.30;;;57.17;;
25191;SDS011;13143;50.924;5.320;2023-05-15T14:14:51;101.63;;;47.88;;
25191;SDS011;13143;50.924;5.320;2023-05-15T14:20:00;76.68;;;34.05;;
25191;SDS011;13143;50.924;5.320;2023-05-15T14:22:32;63.33;;;31.10;;
25191;SDS011;13143;50.924;5.320;2023-05-15T14:25:02;62.20;;;29.73;;
25191;SDS011;13143;50.924;5.320;2023-05-15T14:30:32;58.50;;;28.08;;
25191;SDS011;13143;50.924;5.320;2023-05-15T14:32:59;60.90;;;28.35;;
25191;SDS011;13143;50.924;5.320;2023-05-15T14:35:54;58.30;;;26.10;;
25191;SDS011;13143;50.924;5.320;2023-05-15T14:38:24;46.00;;;22.25;;
25191;SDS011;13143;50.924;5.320;2023-05-15T14:40:53;44.17;;;21.63;;
25191;SDS011;13143;50.924;5.320;2023-05-15T14:43:27;36.85;;;20.10;;
25191;SDS011;13143;50.924;5.320;2023-05-15T14:45:57;30.45;;;16.50;;
25191;SDS011;13143;50.924;5.320;2023-05-15T14:48:42;29.65;;;15.50;;
25191;SDS011;13143;50.924;5.320;2023-05-15T14:51:21;26.55;;;13.95;;
25191;SDS011;13143;50.924;5.320;2023-05-15T14:54:08;25.42;;;12.43;;
25191;SDS011;13143;50.924;5.320;2023-05-15T14:56:37;18.77;;;9.95;;
25191;SDS011;13143;50.924;5.320;2023-05-15T14:59:04;17.67;;;9.63;;
25191;SDS011;13143;50.924;5.320;2023-05-15T15:01:45;16.50;;;8.30;;
25191;SDS011;13143;50.924;5.320;2023-05-15T15:04:23;11.10;;;7.60;;
25191;SDS011;13143;50.924;5.320;2023-05-15T15:07:20;14.32;;;9.75;;
25191;SDS011;13143;50.924;5.320;2023-05-15T15:09:45;22.40;;;9.68;;
25191;SDS011;13143;50.924;5.320;2023-05-15T15:12:11;12.43;;;9.30;;
25191;SDS011;13143;50.924;5.320;2023-05-15T15:14:38;11.18;;;8.80;;
25191;SDS011;13143;50.924;5.320;2023-05-15T15:17:28;10.85;;;8.75;;
25191;SDS011;13143;50.924;5.320;2023-05-15T15:20:09;13.70;;;9.70;;
25191;SDS011;13143;50.924;5.320;2023-05-15T15:22:39;15.02;;;10.10;;
25191;SDS011;13143;50.924;5.320;2023-05-15T15:25:11;15.50;;;10.18;;
25191;SDS011;13143;50.924;5.320;2023-05-15T15:27:41;16.00;;;10.32;;
25191;SDS011;13143;50.924;5.320;2023-05-15T15:30:26;19.33;;;10.88;;
25191;SDS011;13143;50.924;5.320;2023-05-15T15:32:52;18.90;;;8.85;;
25191;SDS011;13143;50.924;5.320;2023-05-15T15:35:26;18.08;;;9.70;;
25191;SDS011;13143;50.924;5.320;2023-05-15T15:37:58;13.90;;;8.85;;
25191;SDS011;13143;50.924;5.320;2023-05-15T15:40:28;12.27;;;7.47;;
25191;SDS011;13143;50.924;5.320;2023-05-15T15:42:54;16.42;;;8.73;;
25191;SDS011;13143;50.924;5.320;2023-05-15T15:45:21;15.55;;;9.15;;